sensor_id;sensor_type;location;lat;lon;timestamp;temperature;humidity
57709;SHT35;42558;52.388;13.390;2023-05-10T00:00:33;11.64;62.29
57709;SHT35;42558;52.388;13.390;2023-05-10T00:03:02;11.61;62.40
57709;SHT35;42558;52.388;13.390;2023-05-10T00:05:33;11.53;62.73
57709;SHT35;42558;52.388;13.390;2023-05-10T00:08:01;11.44;63.06
57709;SHT35;42558;52.388;13.390;2023-05-10T00:14:33;11.28;63.62
57709;SHT35;42558;52.388;13.390;2023-05-10T00:17:03;11.22;64.00
57709;SHT35;42558;52.388;13.390;2023-05-10T00:19:32;11.13;64.25
57709;SHT35;42558;52.388;13.390;2023-05-10T00:22:02;11.15;64.10
57709;SHT35;42558;52.388;13.390;2023-05-10T00:24:32;11.16;64.15
57709;SHT35;42558;52.388;13.390;2023-05-10T00:27:02;11.16;64.09
57709;SHT35;42558;52.388;13.390;2023-05-10T00:29:33;11.16;64.00
57709;SHT35;42558;52.388;13.390;2023-05-10T00:32:03;11.10;64.36
57709;SHT35;42558;52.388;13.390;2023-05-10T00:34:33;11.01;64.65
57709;SHT35;42558;52.388;13.390;2023-05-10T00:37:03;10.98;64.66
57709;SHT35;42558;52.388;13.390;2023-05-10T00:39:32;11.00;64.60
57709;SHT35;42558;52.388;13.390;2023-05-10T00:42:02;11.02;64.60
57709;SHT35;42558;52.388;13.390;2023-05-10T00:44:36;11.01;64.58
57709;SHT35;42558;52.388;13.390;2023-05-10T00:47:04;10.95;64.94
57709;SHT35;42558;52.388;13.390;2023-05-10T00:49:33;10.93;64.82
57709;SHT35;42558;52.388;13.390;2023-05-10T00:52:04;10.98;64.79
57709;SHT35;42558;52.388;13.390;2023-05-10T00:54:33;10.93;64.83
57709;SHT35;42558;52.388;13.390;2023-05-10T00:57:02;10.93;64.79
57709;SHT35;42558;52.388;13.390;2023-05-10T00:59:30;10.97;64.62
57709;SHT35;42558;52.388;13.390;2023-05-10T01:01:58;10.94;64.66
57709;SHT35;42558;52.388;13.390;2023-05-10T01:04:27;10.91;64.60
57709;SHT35;42558;52.388;13.390;2023-05-10T01:06:55;10.94;64.48
57709;SHT35;42558;52.388;13.390;2023-05-10T01:09:23;10.90;64.71
57709;SHT35;42558;52.388;13.390;2023-05-10T01:11:56;10.90;64.53
57709;SHT35;42558;52.388;13.390;2023-05-10T01:14:26;10.89;64.64
57709;SHT35;42558;52.388;13.390;2023-05-10T01:16:57;10.87;64.55
57709;SHT35;42558;52.388;13.390;2023-05-10T01:19:29;10.87;64.56
57709;SHT35;42558;52.388;13.390;2023-05-10T01:28:24;10.74;64.95
57709;SHT35;42558;52.388;13.390;2023-05-10T01:34:12;10.67;65.15
57709;SHT35;42558;52.388;13.390;2023-05-10T01:37:02;10.65;65.20
57709;SHT35;42558;52.388;13.390;2023-05-10T01:39:55;10.59;65.49
57709;SHT35;42558;52.388;13.390;2023-05-10T01:42:46;10.55;65.52
57709;SHT35;42558;52.388;13.390;2023-05-10T01:45:30;10.50;65.73
57709;SHT35;42558;52.388;13.390;2023-05-10T01:48:09;10.51;65.69
57709;SHT35;42558;52.388;13.390;2023-05-10T01:50:41;10.45;65.95
57709;SHT35;42558;52.388;13.390;2023-05-10T01:53:17;10.43;66.00
57709;SHT35;42558;52.388;13.390;2023-05-10T01:55:53;10.42;66.01
57709;SHT35;42558;52.388;13.390;2023-05-10T01:58:32;10.35;66.34
57709;SHT35;42558;52.388;13.390;2023-05-10T02:01:05;10.24;66.68
57709;SHT35;42558;52.388;13.390;2023-05-10T02:03:37;10.25;66.61
57709;SHT35;42558;52.388;13.390;2023-05-10T02:06:09;10.24;66.65
57709;SHT35;42558;52.388;13.390;2023-05-10T02:08:44;10.25;66.68
57709;SHT35;42558;52.388;13.390;2023-05-10T02:11:15;10.19;66.89
57709;SHT35;42558;52.388;13.390;2023-05-10T02:13:50;10.12;67.06
57709;SHT35;42558;52.388;13.390;2023-05-10T02:16:23;10.08;67.30
57709;SHT35;42558;52.388;13.390;2023-05-10T02:18:54;10.06;67.32
57709;SHT35;42558;52.388;13.390;2023-05-10T02:21:26;10.06;67.31
57709;SHT35;42558;52.388;13.390;2023-05-10T02:23:54;10.03;67.50
57709;SHT35;42558;52.388;13.390;2023-05-10T02:26:27;9.97;67.72
57709;SHT35;42558;52.388;13.390;2023-05-10T02:29:01;9.93;67.81
57709;SHT35;42558;52.388;13.390;2023-05-10T02:31:32;9.89;67.95
57709;SHT35;42558;52.388;13.390;2023-05-10T02:34:03;9.85;68.03
57709;SHT35;42558;52.388;13.390;2023-05-10T02:36:35;9.81;68.27
57709;SHT35;42558;52.388;13.390;2023-05-10T02:39:07;9.73;68.56
57709;SHT35;42558;52.388;13.390;2023-05-10T02:41:41;9.71;68.68
57709;SHT35;42558;52.388;13.390;2023-05-10T02:44:12;9.70;68.74
57709;SHT35;42558;52.388;13.390;2023-05-10T02:46:44;9.71;68.68
57709;SHT35;42558;52.388;13.390;2023-05-10T02:49:15;9.70;68.69
57709;SHT35;42558;52.388;13.390;2023-05-10T02:51:47;9.67;68.75
57709;SHT35;42558;52.388;13.390;2023-05-10T02:54:24;9.61;68.96
57709;SHT35;42558;52.388;13.390;2023-05-10T02:57:00;9.55;69.20
57709;SHT35;42558;52.388;13.390;2023-05-10T02:59:35;9.51;69.35
57709;SHT35;42558;52.388;13.390;2023-05-10T03:02:04;9.46;69.57
57709;SHT35;42558;52.388;13.390;2023-05-10T03:04:32;9.39;69.77
57709;SHT35;42558;52.388;13.390;2023-05-10T03:07:01;9.36;69.78
57709;SHT35;42558;52.388;13.390;2023-05-10T03:09:31;9.38;69.78
57709;SHT35;42558;52.388;13.390;2023-05-10T03:15:25;9.33;69.84
57709;SHT35;42558;52.388;13.390;2023-05-10T03:21:07;9.27;69.97
57709;SHT35;42558;52.388;13.390;2023-05-10T03:23:48;9.23;70.20
57709;SHT35;42558;52.388;13.390;2023-05-10T03:26:28;9.20;70.31
57709;SHT35;42558;52.388;13.390;2023-05-10T03:28:59;9.22;70.15
57709;SHT35;42558;52.388;13.390;2023-05-10T03:31:31;9.19;70.36
57709;SHT35;42558;52.388;13.390;2023-05-10T03:34:02;9.17;70.40
57709;SHT35;42558;52.388;13.390;2023-05-10T03:36:32;9.13;70.49
57709;SHT35;42558;52.388;13.390;2023-05-10T03:39:02;9.12;70.54
57709;SHT35;42558;52.388;13.390;2023-05-10T03:41:32;9.13;70.38
57709;SHT35;42558;52.388;13.390;2023-05-10T03:44:01;9.13;70.33
57709;SHT35;42558;52.388;13.390;2023-05-10T03:46:31;9.13;70.41
57709;SHT35;42558;52.388;13.390;2023-05-10T03:49:01;9.13;70.40
57709;SHT35;42558;52.388;13.390;2023-05-10T03:51:31;9.11;70.49
57709;SHT35;42558;52.388;13.390;2023-05-10T03:54:01;9.10;70.51
57709;SHT35;42558;52.388;13.390;2023-05-10T03:56:31;9.14;70.41
57709;SHT35;42558;52.388;13.390;2023-05-10T03:59:01;9.20;70.01
57709;SHT35;42558;52.388;13.390;2023-05-10T04:01:36;9.25;69.74
57709;SHT35;42558;52.388;13.390;2023-05-10T04:04:06;9.27;69.73
57709;SHT35;42558;52.388;13.390;2023-05-10T04:06:37;9.27;69.76
57709;SHT35;42558;52.388;13.390;2023-05-10T04:09:07;9.27;70.02
57709;SHT35;42558;52.388;13.390;2023-05-10T04:11:37;9.29;69.82
57709;SHT35;42558;52.388;13.390;2023-05-10T04:14:07;9.30;69.88
57709;SHT35;42558;52.388;13.390;2023-05-10T04:16:37;9.36;69.51
57709;SHT35;42558;52.388;13.390;2023-05-10T04:19:06;9.43;69.42
57709;SHT35;42558;52.388;13.390;2023-05-10T04:21:36;9.45;69.29
57709;SHT35;42558;52.388;13.390;2023-05-10T04:24:06;9.49;69.21
57709;SHT35;42558;52.388;13.390;2023-05-10T04:26:36;9.56;69.04
57709;SHT35;42558;52.388;13.390;2023-05-10T04:29:06;9.62;68.83
57709;SHT35;42558;52.388;13.390;2023-05-10T04:31:36;9.67;68.52
57709;SHT35;42558;52.388;13.390;2023-05-10T04:34:06;9.73;68.35
57709;SHT35;42558;52.388;13.390;2023-05-10T04:36:36;9.76;68.66
57709;SHT35;42558;52.388;13.390;2023-05-10T04:39:06;9.76;68.55
57709;SHT35;42558;52.388;13.390;2023-05-10T04:41:35;9.83;68.26
57709;SHT35;42558;52.388;13.390;2023-05-10T04:44:07;9.93;68.18
57709;SHT35;42558;52.388;13.390;2023-05-10T04:46:37;9.99;68.12
57709;SHT35;42558;52.388;13.390;2023-05-10T04:49:07;10.05;67.94
57709;SHT35;42558;52.388;13.390;2023-05-10T04:51:36;10.10;67.84
57709;SHT35;42558;52.388;13.390;2023-05-10T04:54:06;10.16;67.70
57709;SHT35;42558;52.388;13.390;2023-05-10T04:56:36;10.30;67.30
57709;SHT35;42558;52.388;13.390;2023-05-10T04:59:06;10.40;67.28
57709;SHT35;42558;52.388;13.390;2023-05-10T05:01:36;10.44;67.07
57709;SHT35;42558;52.388;13.390;2023-05-10T05:04:06;10.53;66.84
57709;SHT35;42558;52.388;13.390;2023-05-10T05:06:36;10.63;66.76
57709;SHT35;42558;52.388;13.390;2023-05-10T05:09:05;10.76;66.34
57709;SHT35;42558;52.388;13.390;2023-05-10T05:11:34;10.83;66.03
57709;SHT35;42558;52.388;13.390;2023-05-10T05:14:02;10.95;65.73
57709;SHT35;42558;52.388;13.390;2023-05-10T05:16:31;11.07;65.51
57709;SHT35;42558;52.388;13.390;2023-05-10T05:18:59;11.22;65.44
57709;SHT35;42558;52.388;13.390;2023-05-10T05:21:27;11.38;64.71
57709;SHT35;42558;52.388;13.390;2023-05-10T05:23:56;11.59;64.08
57709;SHT35;42558;52.388;13.390;2023-05-10T05:26:24;11.65;63.81
57709;SHT35;42558;52.388;13.390;2023-05-10T05:28:53;11.76;63.69
57709;SHT35;42558;52.388;13.390;2023-05-10T05:31:21;11.89;63.14
57709;SHT35;42558;52.388;13.390;2023-05-10T05:33:50;12.04;63.27
57709;SHT35;42558;52.388;13.390;2023-05-10T05:36:18;12.15;62.60
57709;SHT35;42558;52.388;13.390;2023-05-10T05:38:46;12.14;62.26
57709;SHT35;42558;52.388;13.390;2023-05-10T05:41:15;12.31;62.09
57709;SHT35;42558;52.388;13.390;2023-05-10T05:43:43;12.52;62.27
57709;SHT35;42558;52.388;13.390;2023-05-10T05:46:12;12.67;61.71
57709;SHT35;42558;52.388;13.390;2023-05-10T05:48:40;12.81;61.68
57709;SHT35;42558;52.388;13.390;2023-05-10T05:51:08;13.01;61.18
57709;SHT35;42558;52.388;13.390;2023-05-10T05:53:37;12.98;60.68
57709;SHT35;42558;52.388;13.390;2023-05-10T05:56:05;13.12;60.71
57709;SHT35;42558;52.388;13.390;2023-05-10T05:58:34;13.37;59.99
57709;SHT35;42558;52.388;13.390;2023-05-10T06:01:02;13.54;59.53
57709;SHT35;42558;52.388;13.390;2023-05-10T06:03:30;13.50;59.53
57709;SHT35;42558;52.388;13.390;2023-05-10T06:05:59;13.73;59.24
57709;SHT35;42558;52.388;13.390;2023-05-10T06:08:27;13.94;58.37
57709;SHT35;42558;52.388;13.390;2023-05-10T06:10:56;14.04;57.97
57709;SHT35;42558;52.388;13.390;2023-05-10T06:13:24;14.13;57.71
57709;SHT35;42558;52.388;13.390;2023-05-10T06:15:53;14.35;57.74
57709;SHT35;42558;52.388;13.390;2023-05-10T06:18:21;14.64;56.92
57709;SHT35;42558;52.388;13.390;2023-05-10T06:20:49;14.59;57.17
57709;SHT35;42558;52.388;13.390;2023-05-10T06:23:18;14.78;56.62
57709;SHT35;42558;52.388;13.390;2023-05-10T06:25:46;15.04;56.62
57709;SHT35;42558;52.388;13.390;2023-05-10T06:28:15;15.43;55.69
57709;SHT35;42558;52.388;13.390;2023-05-10T06:30:43;15.58;54.77
57709;SHT35;42558;52.388;13.390;2023-05-10T06:33:12;15.53;54.78
57709;SHT35;42558;52.388;13.390;2023-05-10T06:35:40;15.13;55.28
57709;SHT35;42558;52.388;13.390;2023-05-10T06:38:08;15.33;55.00
57709;SHT35;42558;52.388;13.390;2023-05-10T06:40:39;15.61;54.91
57709;SHT35;42558;52.388;13.390;2023-05-10T06:43:08;15.37;54.44
57709;SHT35;42558;52.388;13.390;2023-05-10T06:45:37;15.49;54.62
57709;SHT35;42558;52.388;13.390;2023-05-10T06:48:05;15.88;53.85
57709;SHT35;42558;52.388;13.390;2023-05-10T06:50:33;15.96;53.25
57709;SHT35;42558;52.388;13.390;2023-05-10T06:53:02;16.14;53.34
57709;SHT35;42558;52.388;13.390;2023-05-10T06:55:30;16.26;53.14
57709;SHT35;42558;52.388;13.390;2023-05-10T06:57:59;16.69;53.18
57709;SHT35;42558;52.388;13.390;2023-05-10T07:00:27;16.78;51.73
57709;SHT35;42558;52.388;13.390;2023-05-10T07:02:55;16.47;52.25
57709;SHT35;42558;52.388;13.390;2023-05-10T07:05:24;16.70;51.98
57709;SHT35;42558;52.388;13.390;2023-05-10T07:07:52;16.73;51.79
57709;SHT35;42558;52.388;13.390;2023-05-10T07:10:21;16.75;52.57
57709;SHT35;42558;52.388;13.390;2023-05-10T07:12:49;17.10;51.23
57709;SHT35;42558;52.388;13.390;2023-05-10T07:15:18;16.72;51.26
57709;SHT35;42558;52.388;13.390;2023-05-10T07:17:46;16.87;51.82
57709;SHT35;42558;52.388;13.390;2023-05-10T07:20:14;17.15;50.52
57709;SHT35;42558;52.388;13.390;2023-05-10T07:22:43;17.56;50.47
57709;SHT35;42558;52.388;13.390;2023-05-10T07:25:11;17.42;49.97
57709;SHT35;42558;52.388;13.390;2023-05-10T07:27:40;17.25;50.32
57709;SHT35;42558;52.388;13.390;2023-05-10T07:30:08;17.42;50.18
57709;SHT35;42558;52.388;13.390;2023-05-10T07:32:39;17.25;50.27
57709;SHT35;42558;52.388;13.390;2023-05-10T07:35:11;17.32;50.33
57709;SHT35;42558;52.388;13.390;2023-05-10T07:37:41;17.45;50.34
57709;SHT35;42558;52.388;13.390;2023-05-10T07:40:10;17.42;50.05
57709;SHT35;42558;52.388;13.390;2023-05-10T07:42:40;17.95;49.77
57709;SHT35;42558;52.388;13.390;2023-05-10T07:45:10;18.24;49.55
57709;SHT35;42558;52.388;13.390;2023-05-10T07:47:40;18.50;47.60
57709;SHT35;42558;52.388;13.390;2023-05-10T07:50:10;18.21;48.09
57709;SHT35;42558;52.388;13.390;2023-05-10T07:52:40;17.47;49.98
57709;SHT35;42558;52.388;13.390;2023-05-10T07:55:09;17.66;49.67
57709;SHT35;42558;52.388;13.390;2023-05-10T07:57:39;18.26;49.53
57709;SHT35;42558;52.388;13.390;2023-05-10T08:00:11;18.44;48.76
57709;SHT35;42558;52.388;13.390;2023-05-10T08:02:46;18.43;48.54
57709;SHT35;42558;52.388;13.390;2023-05-10T08:05:17;18.31;48.33
57709;SHT35;42558;52.388;13.390;2023-05-10T08:07:48;18.66;48.64
57709;SHT35;42558;52.388;13.390;2023-05-10T08:10:18;19.05;47.71
57709;SHT35;42558;52.388;13.390;2023-05-10T08:12:48;18.43;47.10
57709;SHT35;42558;52.388;13.390;2023-05-10T08:15:17;18.56;48.08
57709;SHT35;42558;52.388;13.390;2023-05-10T08:17:48;18.97;47.94
57709;SHT35;42558;52.388;13.390;2023-05-10T08:20:18;19.38;47.57
57709;SHT35;42558;52.388;13.390;2023-05-10T08:22:48;19.08;46.98
57709;SHT35;42558;52.388;13.390;2023-05-10T08:25:20;19.03;46.79
57709;SHT35;42558;52.388;13.390;2023-05-10T08:27:50;18.72;47.17
57709;SHT35;42558;52.388;13.390;2023-05-10T08:30:20;18.82;47.76
57709;SHT35;42558;52.388;13.390;2023-05-10T08:32:50;19.30;47.56
57709;SHT35;42558;52.388;13.390;2023-05-10T08:35:20;19.86;46.50
57709;SHT35;42558;52.388;13.390;2023-05-10T08:37:50;19.96;45.73
57709;SHT35;42558;52.388;13.390;2023-05-10T08:40:21;19.61;46.01
57709;SHT35;42558;52.388;13.390;2023-05-10T08:42:58;19.72;46.09
57709;SHT35;42558;52.388;13.390;2023-05-10T08:45:39;19.78;45.85
57709;SHT35;42558;52.388;13.390;2023-05-10T08:48:12;19.78;46.85
57709;SHT35;42558;52.388;13.390;2023-05-10T08:50:44;19.64;46.68
57709;SHT35;42558;52.388;13.390;2023-05-10T08:53:16;19.81;46.50
57709;SHT35;42558;52.388;13.390;2023-05-10T08:55:48;20.50;45.48
57709;SHT35;42558;52.388;13.390;2023-05-10T08:58:19;20.61;44.88
57709;SHT35;42558;52.388;13.390;2023-05-10T09:00:49;20.52;45.00
57709;SHT35;42558;52.388;13.390;2023-05-10T09:03:20;20.39;45.08
57709;SHT35;42558;52.388;13.390;2023-05-10T09:05:50;20.58;44.96
57709;SHT35;42558;52.388;13.390;2023-05-10T09:08:20;20.58;45.41
57709;SHT35;42558;52.388;13.390;2023-05-10T09:10:54;20.52;44.99
57709;SHT35;42558;52.388;13.390;2023-05-10T09:13:24;20.51;44.77
57709;SHT35;42558;52.388;13.390;2023-05-10T09:15:55;20.66;45.22
57709;SHT35;42558;52.388;13.390;2023-05-10T09:18:30;20.78;45.08
57709;SHT35;42558;52.388;13.390;2023-05-10T09:21:00;20.79;44.08
57709;SHT35;42558;52.388;13.390;2023-05-10T09:23:31;20.41;44.84
57709;SHT35;42558;52.388;13.390;2023-05-10T09:26:04;20.51;44.88
57709;SHT35;42558;52.388;13.390;2023-05-10T09:28:49;20.55;44.77
57709;SHT35;42558;52.388;13.390;2023-05-10T09:31:42;20.58;44.99
57709;SHT35;42558;52.388;13.390;2023-05-10T09:34:17;20.89;44.52
57709;SHT35;42558;52.388;13.390;2023-05-10T09:36:52;21.09;43.83
57709;SHT35;42558;52.388;13.390;2023-05-10T09:39:30;21.17;43.97
57709;SHT35;42558;52.388;13.390;2023-05-10T09:42:06;21.07;43.61
57709;SHT35;42558;52.388;13.390;2023-05-10T09:44:41;21.30;44.19
57709;SHT35;42558;52.388;13.390;2023-05-10T09:47:16;21.55;43.92
57709;SHT35;42558;52.388;13.390;2023-05-10T09:49:51;21.56;43.47
57709;SHT35;42558;52.388;13.390;2023-05-10T09:52:24;21.32;43.26
57709;SHT35;42558;52.388;13.390;2023-05-10T09:54:54;20.97;44.38
57709;SHT35;42558;52.388;13.390;2023-05-10T09:57:24;21.14;44.31
57709;SHT35;42558;52.388;13.390;2023-05-10T09:59:55;21.89;43.44
57709;SHT35;42558;52.388;13.390;2023-05-10T10:02:29;21.20;43.58
57709;SHT35;42558;52.388;13.390;2023-05-10T10:05:01;20.95;44.21
57709;SHT35;42558;52.388;13.390;2023-05-10T10:07:33;20.97;44.97
57709;SHT35;42558;52.388;13.390;2023-05-10T10:10:04;21.58;43.78
57709;SHT35;42558;52.388;13.390;2023-05-10T10:12:41;21.69;43.50
57709;SHT35;42558;52.388;13.390;2023-05-10T10:15:11;21.49;43.66
57709;SHT35;42558;52.388;13.390;2023-05-10T10:17:44;21.47;44.51
57709;SHT35;42558;52.388;13.390;2023-05-10T10:20:16;21.83;43.34
57709;SHT35;42558;52.388;13.390;2023-05-10T10:22:48;22.16;42.53
57709;SHT35;42558;52.388;13.390;2023-05-10T10:25:19;22.20;42.16
57709;SHT35;42558;52.388;13.390;2023-05-10T10:30:42;22.03;42.58
57709;SHT35;42558;52.388;13.390;2023-05-10T10:33:33;22.26;42.18
57709;SHT35;42558;52.388;13.390;2023-05-10T10:36:20;21.94;43.47
57709;SHT35;42558;52.388;13.390;2023-05-10T10:41:28;21.91;42.97
57709;SHT35;42558;52.388;13.390;2023-05-10T10:46:58;22.11;42.66
57709;SHT35;42558;52.388;13.390;2023-05-10T10:52:13;22.60;41.40
57709;SHT35;42558;52.388;13.390;2023-05-10T11:00:25;22.78;41.18
57709;SHT35;42558;52.388;13.390;2023-05-10T11:03:10;22.44;40.67
57709;SHT35;42558;52.388;13.390;2023-05-10T11:05:46;22.66;41.03
57709;SHT35;42558;52.388;13.390;2023-05-10T11:08:28;22.60;41.32
57709;SHT35;42558;52.388;13.390;2023-05-10T11:13:40;22.74;40.86
57709;SHT35;42558;52.388;13.390;2023-05-10T11:16:14;22.75;40.63
57709;SHT35;42558;52.388;13.390;2023-05-10T11:18:58;22.98;40.66
57709;SHT35;42558;52.388;13.390;2023-05-10T11:21:33;23.22;39.93
57709;SHT35;42558;52.388;13.390;2023-05-10T11:24:14;22.71;40.24
57709;SHT35;42558;52.388;13.390;2023-05-10T11:26:50;22.17;40.62
57709;SHT35;42558;52.388;13.390;2023-05-10T11:29:21;22.38;40.57
57709;SHT35;42558;52.388;13.390;2023-05-10T11:31:51;22.25;40.72
57709;SHT35;42558;52.388;13.390;2023-05-10T11:34:27;22.52;40.41
57709;SHT35;42558;52.388;13.390;2023-05-10T11:37:00;23.00;39.72
57709;SHT35;42558;52.388;13.390;2023-05-10T11:39:31;23.24;40.65
57709;SHT35;42558;52.388;13.390;2023-05-10T11:42:02;22.75;39.49
57709;SHT35;42558;52.388;13.390;2023-05-10T11:44:36;22.53;40.25
57709;SHT35;42558;52.388;13.390;2023-05-10T11:47:06;22.90;40.70
57709;SHT35;42558;52.388;13.390;2023-05-10T11:49:34;23.16;39.57
57709;SHT35;42558;52.388;13.390;2023-05-10T11:52:03;23.32;38.83
57709;SHT35;42558;52.388;13.390;2023-05-10T11:54:34;23.08;39.18
57709;SHT35;42558;52.388;13.390;2023-05-10T11:57:03;22.88;39.15
57709;SHT35;42558;52.388;13.390;2023-05-10T11:59:31;22.66;39.75
57709;SHT35;42558;52.388;13.390;2023-05-10T12:01:59;23.09;39.90
57709;SHT35;42558;52.388;13.390;2023-05-10T12:04:28;23.05;38.67
57709;SHT35;42558;52.388;13.390;2023-05-10T12:06:56;22.62;38.60
57709;SHT35;42558;52.388;13.390;2023-05-10T12:09:25;22.74;38.89
57709;SHT35;42558;52.388;13.390;2023-05-10T12:12:17;22.95;39.61
57709;SHT35;42558;52.388;13.390;2023-05-10T12:14:48;23.00;38.31
57709;SHT35;42558;52.388;13.390;2023-05-10T12:17:20;23.11;39.47
57709;SHT35;42558;52.388;13.390;2023-05-10T12:19:50;22.89;38.71
57709;SHT35;42558;52.388;13.390;2023-05-10T12:22:20;22.84;38.45
57709;SHT35;42558;52.388;13.390;2023-05-10T12:24:51;22.77;38.53
57709;SHT35;42558;52.388;13.390;2023-05-10T12:27:21;23.04;38.21
57709;SHT35;42558;52.388;13.390;2023-05-10T12:29:50;22.79;38.24
57709;SHT35;42558;52.388;13.390;2023-05-10T12:32:20;22.90;38.46
57709;SHT35;42558;52.388;13.390;2023-05-10T12:34:49;22.75;39.18
57709;SHT35;42558;52.388;13.390;2023-05-10T12:37:23;22.87;38.12
57709;SHT35;42558;52.388;13.390;2023-05-10T12:39:56;23.06;39.05
57709;SHT35;42558;52.388;13.390;2023-05-10T12:42:26;23.02;38.60
57709;SHT35;42558;52.388;13.390;2023-05-10T12:44:56;22.99;38.52
57709;SHT35;42558;52.388;13.390;2023-05-10T12:47:26;23.02;38.33
57709;SHT35;42558;52.388;13.390;2023-05-10T12:49:56;23.31;39.21
57709;SHT35;42558;52.388;13.390;2023-05-10T12:52:27;23.30;37.73
57709;SHT35;42558;52.388;13.390;2023-05-10T12:54:58;23.07;37.70
57709;SHT35;42558;52.388;13.390;2023-05-10T12:57:29;23.07;37.85
57709;SHT35;42558;52.388;13.390;2023-05-10T12:59:59;22.99;39.01
57709;SHT35;42558;52.388;13.390;2023-05-10T13:02:29;23.36;38.73
57709;SHT35;42558;52.388;13.390;2023-05-10T13:04:59;23.39;36.87
57709;SHT35;42558;52.388;13.390;2023-05-10T13:07:29;23.32;37.73
57709;SHT35;42558;52.388;13.390;2023-05-10T13:09:59;23.61;37.84
57709;SHT35;42558;52.388;13.390;2023-05-10T13:12:29;23.43;37.83
57709;SHT35;42558;52.388;13.390;2023-05-10T13:14:59;23.01;39.13
57709;SHT35;42558;52.388;13.390;2023-05-10T13:17:28;23.11;38.57
57709;SHT35;42558;52.388;13.390;2023-05-10T13:20:01;23.63;38.56
57709;SHT35;42558;52.388;13.390;2023-05-10T13:22:30;23.95;36.40
57709;SHT35;42558;52.388;13.390;2023-05-10T13:25:08;23.65;36.85
57709;SHT35;42558;52.388;13.390;2023-05-10T13:27:40;23.27;37.25
57709;SHT35;42558;52.388;13.390;2023-05-10T13:30:10;23.39;39.23
57709;SHT35;42558;52.388;13.390;2023-05-10T13:32:40;23.89;38.11
57709;SHT35;42558;52.388;13.390;2023-05-10T13:35:10;23.72;38.13
57709;SHT35;42558;52.388;13.390;2023-05-10T13:37:40;23.56;37.65
57709;SHT35;42558;52.388;13.390;2023-05-10T13:40:10;23.60;38.12
57709;SHT35;42558;52.388;13.390;2023-05-10T13:42:40;23.22;37.85
57709;SHT35;42558;52.388;13.390;2023-05-10T13:45:11;22.73;38.97
57709;SHT35;42558;52.388;13.390;2023-05-10T13:47:42;22.89;38.95
57709;SHT35;42558;52.388;13.390;2023-05-10T13:50:12;22.97;38.29
57709;SHT35;42558;52.388;13.390;2023-05-10T13:52:42;23.07;37.17
57709;SHT35;42558;52.388;13.390;2023-05-10T13:55:12;23.32;37.37
57709;SHT35;42558;52.388;13.390;2023-05-10T13:57:42;23.38;37.27
57709;SHT35;42558;52.388;13.390;2023-05-10T14:00:12;23.24;37.88
57709;SHT35;42558;52.388;13.390;2023-05-10T14:02:43;23.74;38.70
57709;SHT35;42558;52.388;13.390;2023-05-10T14:05:13;23.69;36.99
57709;SHT35;42558;52.388;13.390;2023-05-10T14:07:43;24.04;36.55
57709;SHT35;42558;52.388;13.390;2023-05-10T14:10:12;24.40;35.44
57709;SHT35;42558;52.388;13.390;2023-05-10T14:12:42;24.06;35.76
57709;SHT35;42558;52.388;13.390;2023-05-10T14:15:12;23.90;35.78
57709;SHT35;42558;52.388;13.390;2023-05-10T14:17:42;24.08;36.13
57709;SHT35;42558;52.388;13.390;2023-05-10T14:20:12;24.42;35.86
57709;SHT35;42558;52.388;13.390;2023-05-10T14:22:42;24.67;35.25
57709;SHT35;42558;52.388;13.390;2023-05-10T14:25:11;24.75;35.69
57709;SHT35;42558;52.388;13.390;2023-05-10T14:27:44;24.70;34.41
57709;SHT35;42558;52.388;13.390;2023-05-10T14:30:14;24.34;33.46
57709;SHT35;42558;52.388;13.390;2023-05-10T14:32:42;23.71;33.49
57709;SHT35;42558;52.388;13.390;2023-05-10T14:35:10;23.69;35.05
57709;SHT35;42558;52.388;13.390;2023-05-10T14:40:46;23.86;34.96
57709;SHT35;42558;52.388;13.390;2023-05-10T14:43:17;23.35;35.30
57709;SHT35;42558;52.388;13.390;2023-05-10T14:45:47;23.50;36.08
57709;SHT35;42558;52.388;13.390;2023-05-10T14:48:17;23.33;35.70
57709;SHT35;42558;52.388;13.390;2023-05-10T14:50:47;22.95;36.81
57709;SHT35;42558;52.388;13.390;2023-05-10T14:53:19;23.12;37.12
57709;SHT35;42558;52.388;13.390;2023-05-10T14:55:49;23.08;36.29
57709;SHT35;42558;52.388;13.390;2023-05-10T14:58:19;23.07;35.95
57709;SHT35;42558;52.388;13.390;2023-05-10T15:00:49;23.16;36.54
57709;SHT35;42558;52.388;13.390;2023-05-10T15:03:19;23.21;37.68
57709;SHT35;42558;52.388;13.390;2023-05-10T15:05:50;22.70;37.39
57709;SHT35;42558;52.388;13.390;2023-05-10T15:08:20;22.51;37.95
57709;SHT35;42558;52.388;13.390;2023-05-10T15:10:51;22.80;38.00
57709;SHT35;42558;52.388;13.390;2023-05-10T15:13:21;22.73;37.84
57709;SHT35;42558;52.388;13.390;2023-05-10T15:15:51;22.83;38.68
57709;SHT35;42558;52.388;13.390;2023-05-10T15:18:21;22.89;38.31
57709;SHT35;42558;52.388;13.390;2023-05-10T15:20:53;22.93;38.67
57709;SHT35;42558;52.388;13.390;2023-05-10T15:23:21;22.91;37.65
57709;SHT35;42558;52.388;13.390;2023-05-10T15:25:50;22.96;38.13
57709;SHT35;42558;52.388;13.390;2023-05-10T15:28:21;23.39;38.29
57709;SHT35;42558;52.388;13.390;2023-05-10T15:30:50;23.62;38.04
57709;SHT35;42558;52.388;13.390;2023-05-10T15:33:19;23.65;38.46
57709;SHT35;42558;52.388;13.390;2023-05-10T15:35:48;23.92;38.17
57709;SHT35;42558;52.388;13.390;2023-05-10T15:38:18;24.18;38.04
57709;SHT35;42558;52.388;13.390;2023-05-10T15:40:49;23.95;38.03
57709;SHT35;42558;52.388;13.390;2023-05-10T15:43:19;23.58;37.34
57709;SHT35;42558;52.388;13.390;2023-05-10T15:45:49;23.17;38.71
57709;SHT35;42558;52.388;13.390;2023-05-10T15:48:19;23.29;38.85
57709;SHT35;42558;52.388;13.390;2023-05-10T15:50:49;23.24;38.92
57709;SHT35;42558;52.388;13.390;2023-05-10T15:53:19;22.84;39.63
57709;SHT35;42558;52.388;13.390;2023-05-10T15:59:41;22.52;40.42
57709;SHT35;42558;52.388;13.390;2023-05-10T16:02:11;22.45;44.17
57709;SHT35;42558;52.388;13.390;2023-05-10T16:04:39;22.19;49.54
57709;SHT35;42558;52.388;13.390;2023-05-10T16:11:27;21.35;55.04
57709;SHT35;42558;52.388;13.390;2023-05-10T16:13:56;20.98;56.62
57709;SHT35;42558;52.388;13.390;2023-05-10T16:16:23;20.93;56.74
57709;SHT35;42558;52.388;13.390;2023-05-10T16:18:53;20.82;57.14
57709;SHT35;42558;52.388;13.390;2023-05-10T16:21:23;20.90;57.32
57709;SHT35;42558;52.388;13.390;2023-05-10T16:23:53;20.77;57.46
57709;SHT35;42558;52.388;13.390;2023-05-10T16:26:23;20.71;57.64
57709;SHT35;42558;52.388;13.390;2023-05-10T16:28:53;20.70;58.13
57709;SHT35;42558;52.388;13.390;2023-05-10T16:31:23;20.75;58.05